Palmview, Texas
Current Conditions -  °F | °C
As of 5:53 PM on Tuesday 25 Nov 2014 (Local Time) from KMFE Reporting Station
Clear Clear  
Wind Chill: 63°   Ceiling: Unl
Heat Index: 63°   Visibility: 10mi
Dew Point: 29°   Wind: 3mph
Humidity: 28%   Direction: 30°NNE
Pressure: 30.28"   Gusts: NA
Location:  26.2182°N, 98.327°W
Report Text: KMFE 252353Z 03003KT 10SM CLR 17/M02 A3028 RMK AO2 SLP253 T01721017 10211 20172 58007
Loading
Personal Weather Stations






























Interactive Weather Map New forecast layout! Learn more

10-Day Weather Forecast

Advertisements
Track Severe Weather on mobile